createdAt,value
2016-05-08T00:00:58.525Z,0
2016-05-08T00:01:58.402Z,0
2016-05-08T00:02:58.593Z,0
2016-05-08T00:03:58.643Z,0
2016-05-08T00:04:58.677Z,0
2016-05-08T00:05:58.710Z,0
2016-05-08T00:06:58.760Z,0
2016-05-08T00:07:58.794Z,0
2016-05-08T00:08:58.859Z,0
2016-05-08T00:09:58.581Z,0
2016-05-08T00:10:58.912Z,0
2016-05-08T00:11:58.961Z,0
2016-05-08T00:12:59.698Z,0
2016-05-08T00:13:59.045Z,0
2016-05-08T00:14:59.109Z,0
2016-05-08T00:15:59.112Z,0
2016-05-08T00:16:59.162Z,0
2016-05-08T00:17:59.212Z,0
2016-05-08T00:18:59.105Z,0
2016-05-08T00:19:59.280Z,0
2016-05-08T00:20:59.328Z,0
2016-05-08T00:21:59.363Z,0
2016-05-08T00:22:59.414Z,0
2016-05-08T00:23:59.447Z,0
2016-05-08T00:24:59.488Z,0
2016-05-08T00:25:59.224Z,0
2016-05-08T00:26:59.571Z,0
2016-05-08T00:28:00.182Z,0
2016-05-08T00:28:59.655Z,0
2016-05-08T00:29:59.548Z,0
2016-05-08T00:30:59.723Z,0
2016-05-08T00:31:59.757Z,0
2016-05-08T00:32:59.806Z,0
2016-05-08T00:33:59.855Z,0
2016-05-08T00:34:59.936Z,0
2016-05-08T00:35:59.923Z,0
2016-05-08T00:36:59.973Z,0
2016-05-08T00:38:00.007Z,0
2016-05-08T00:39:00.072Z,0
2016-05-08T00:40:00.090Z,0
2016-05-08T00:40:59.983Z,0
2016-05-08T00:42:00.174Z,0
2016-05-08T00:43:00.598Z,0
2016-05-08T00:44:00.258Z,0
2016-05-08T00:45:00.291Z,0
2016-05-08T00:46:00.341Z,0
2016-05-08T00:47:00.375Z,0
2016-05-08T00:48:00.269Z,0
2016-05-08T00:49:00.458Z,0
2016-05-08T00:50:00.492Z,0
2016-05-08T00:51:00.541Z,0
2016-05-08T00:52:00.591Z,0
2016-05-08T00:53:00.609Z,0
2016-05-08T00:54:00.660Z,0
2016-05-08T00:55:00.693Z,0
2016-05-08T00:56:00.743Z,0
2016-05-08T00:57:00.620Z,0
2016-05-08T00:58:00.826Z,0
2016-05-08T00:59:00.859Z,0
2016-05-08T01:00:00.894Z,0
2016-05-08T01:01:00.944Z,0
2016-05-08T01:02:00.978Z,0
2016-05-08T01:03:01.026Z,0
2016-05-08T01:04:01.062Z,0
2016-05-08T01:05:01.095Z,0
2016-05-08T01:06:01.145Z,0
2016-05-08T01:07:01.179Z,0
2016-05-08T01:08:01.212Z,0
2016-05-08T01:09:01.121Z,0
2016-05-08T01:10:01.155Z,0
2016-05-08T01:11:01.345Z,0
2016-05-08T01:12:01.380Z,0
2016-05-08T01:13:01.273Z,0
2016-05-08T01:14:01.463Z,0
2016-05-08T01:15:01.513Z,0
2016-05-08T01:16:01.547Z,0
2016-05-08T01:17:01.581Z,0
2016-05-08T01:18:01.630Z,0
2016-05-08T01:19:01.680Z,0
2016-05-08T01:20:01.697Z,0
2016-05-08T01:21:01.747Z,0
2016-05-08T01:22:01.797Z,0
2016-05-08T01:23:01.831Z,0
2016-05-08T01:24:01.880Z,0
2016-05-08T01:25:01.900Z,0
2016-05-08T01:26:01.949Z,0
2016-05-08T01:27:01.842Z,0
2016-05-08T01:28:01.876Z,0
2016-05-08T01:29:02.083Z,0
2016-05-08T01:30:01.960Z,0
2016-05-08T01:31:02.135Z,0
2016-05-08T01:32:02.027Z,0
2016-05-08T01:33:02.234Z,0
2016-05-08T01:34:02.268Z,0
2016-05-08T01:35:02.302Z,0
2016-05-08T01:36:02.210Z,0
2016-05-08T01:37:02.385Z,0
2016-05-08T01:38:02.278Z,0
2016-05-08T01:39:02.469Z,0
2016-05-08T01:40:02.549Z,0
2016-05-08T01:41:02.552Z,0
2016-05-08T01:42:02.586Z,0
2016-05-08T01:43:02.479Z,0
2016-05-08T01:44:02.670Z,0
2016-05-08T01:45:02.720Z,0
2016-05-08T01:46:02.753Z,0
2016-05-08T01:47:02.787Z,0
2016-05-08T01:48:02.681Z,0
2016-05-08T01:49:02.886Z,0
2016-05-08T01:50:02.920Z,0
2016-05-08T01:51:02.954Z,0
2016-05-08T01:52:02.831Z,0
2016-05-08T01:53:03.037Z,0
2016-05-08T01:54:03.087Z,0
2016-05-08T01:55:02.965Z,0
2016-05-08T01:56:03.202Z,0
2016-05-08T01:57:03.205Z,0
2016-05-08T01:58:03.410Z,0
2016-05-08T01:59:03.132Z,0
2016-05-08T02:00:03.166Z,0
2016-05-08T02:01:03.356Z,0
2016-05-08T02:02:03.234Z,0
2016-05-08T02:03:03.439Z,0
2016-05-08T02:04:03.316Z,0
2016-05-08T02:05:03.523Z,0
2016-05-08T02:06:03.557Z,0
2016-05-08T02:07:03.591Z,0
2016-05-08T02:08:03.641Z,0
2016-05-08T02:09:03.674Z,0
2016-05-08T02:10:03.567Z,0
2016-05-08T02:11:03.758Z,0
2016-05-08T02:12:03.793Z,0
2016-05-08T02:13:04.216Z,0
2016-05-08T02:14:03.891Z,0
2016-05-08T02:15:03.768Z,0
2016-05-08T02:16:03.959Z,0
2016-05-08T02:17:04.008Z,0
2016-05-08T02:18:04.043Z,0
2016-05-08T02:19:04.076Z,0
2016-05-08T02:20:04.110Z,0
2016-05-08T02:21:04.175Z,0
2016-05-08T02:22:04.225Z,0
2016-05-08T02:23:04.243Z,0
2016-05-08T02:24:04.121Z,0
2016-05-08T02:25:04.170Z,0
2016-05-08T02:26:04.361Z,0
2016-05-08T02:27:04.394Z,0
2016-05-08T02:28:04.303Z,0
2016-05-08T02:29:04.478Z,0
2016-05-08T02:30:04.372Z,0
2016-05-08T02:31:04.561Z,0
2016-05-08T02:32:04.596Z,0
2016-05-08T02:33:04.489Z,0
2016-05-08T02:34:04.694Z,0
2016-05-08T02:35:04.729Z,0
2016-05-08T02:36:04.763Z,0
2016-05-08T02:37:04.812Z,0
2016-05-08T02:38:04.862Z,0
2016-05-08T02:39:04.896Z,0
2016-05-08T02:40:04.929Z,0
2016-05-08T02:41:04.963Z,0
2016-05-08T02:42:05.046Z,0
2016-05-08T02:43:05.142Z,0
2016-05-08T02:44:05.223Z,0
2016-05-08T02:45:05.306Z,0
2016-05-08T02:46:05.231Z,0
2016-05-08T02:47:05.323Z,0
2016-05-08T02:48:05.532Z,0
2016-05-08T02:49:05.426Z,0
2016-05-08T02:50:05.633Z,0
2016-05-08T02:51:05.700Z,0
2016-05-08T02:52:05.743Z,0
2016-05-08T02:53:05.783Z,0
2016-05-08T02:54:05.684Z,0
2016-05-08T02:55:05.895Z,0
2016-05-08T02:56:05.778Z,0
2016-05-08T02:57:05.973Z,0
2016-05-08T02:58:06.150Z,0
2016-05-08T02:59:06.061Z,0
2016-05-08T03:00:05.941Z,0
2016-05-08T03:01:06.133Z,0
2016-05-08T03:02:06.028Z,0
2016-05-08T03:03:06.218Z,0
2016-05-08T03:04:06.268Z,0
2016-05-08T03:05:06.163Z,0
2016-05-08T03:06:06.354Z,0
2016-05-08T03:07:06.389Z,0
2016-05-08T03:08:06.423Z,0
2016-05-08T03:09:06.457Z,0
2016-05-08T03:10:06.507Z,0
2016-05-08T03:11:06.557Z,0
2016-05-08T03:12:06.435Z,0
2016-05-08T03:13:06.657Z,0
2016-05-08T03:14:06.674Z,0
2016-05-08T03:15:06.724Z,0
2016-05-08T03:16:06.742Z,0
2016-05-08T03:17:06.808Z,0
2016-05-08T03:18:06.685Z,0
2016-05-08T03:19:06.891Z,0
2016-05-08T03:20:06.909Z,0
2016-05-08T03:21:06.944Z,0
2016-05-08T03:22:06.993Z,0
2016-05-08T03:23:07.043Z,0
2016-05-08T03:24:07.076Z,0
2016-05-08T03:25:06.954Z,0
2016-05-08T03:26:07.159Z,0
2016-05-08T03:27:07.038Z,0
2016-05-08T03:28:06.947Z,0
2016-05-08T03:29:07.122Z,0
2016-05-08T03:30:07.155Z,0
2016-05-08T03:31:07.362Z,0
2016-05-08T03:32:07.394Z,0
2016-05-08T03:33:07.445Z,0
2016-05-08T03:34:07.494Z,0
2016-05-08T03:35:07.527Z,0
2016-05-08T03:36:07.562Z,0
2016-05-08T03:37:07.611Z,0
2016-05-08T03:38:07.489Z,0
2016-05-08T03:39:07.679Z,0
2016-05-08T03:40:07.729Z,0
2016-05-08T03:41:07.794Z,0
2016-05-08T03:42:07.812Z,0
2016-05-08T03:43:08.003Z,0
2016-05-08T03:44:07.880Z,0
2016-05-08T03:45:07.915Z,0
2016-05-08T03:46:07.979Z,4
2016-05-08T03:47:08.013Z,4
2016-05-08T03:48:08.032Z,4
2016-05-08T03:49:08.082Z,4
2016-05-08T03:50:08.115Z,4
2016-05-08T03:51:08.165Z,4
2016-05-08T03:52:08.042Z,4
2016-05-08T03:53:08.248Z,4
2016-05-08T03:54:08.282Z,4
2016-05-08T03:55:08.332Z,4
2016-05-08T03:56:08.365Z,0
2016-05-08T03:57:08.243Z,0
2016-05-08T03:58:08.465Z,0
2016-05-08T03:59:08.483Z,0
2016-05-08T04:00:08.533Z,0
2016-05-08T04:01:08.567Z,0
2016-05-08T04:02:08.601Z,0
2016-05-08T04:03:08.650Z,0
2016-05-08T04:04:08.700Z,0
2016-05-08T04:05:08.733Z,0
2016-05-08T04:06:08.767Z,0
2016-05-08T04:07:08.802Z,0
2016-05-08T04:08:08.852Z,4
2016-05-08T04:09:08.885Z,4
2016-05-08T04:10:08.935Z,4
2016-05-08T04:11:08.813Z,4
2016-05-08T04:12:09.003Z,4
2016-05-08T04:13:09.724Z,4
2016-05-08T04:14:09.102Z,4
2016-05-08T04:15:08.979Z,4
2016-05-08T04:16:09.169Z,4
2016-05-08T04:17:09.219Z,4
2016-05-08T04:18:09.269Z,4
2016-05-08T04:19:09.302Z,4
2016-05-08T04:20:09.352Z,4
2016-05-08T04:21:09.371Z,4
2016-05-08T04:22:09.421Z,4
2016-05-08T04:23:09.454Z,4
2016-05-08T04:24:09.503Z,4
2016-05-08T04:25:09.537Z,0
2016-05-08T04:26:09.571Z,0
2016-05-08T04:27:09.465Z,0
2016-05-08T04:28:09.687Z,0
2016-05-08T04:29:09.548Z,0
2016-05-08T04:30:09.738Z,4
2016-05-08T04:31:09.788Z,4
2016-05-08T04:32:09.823Z,4
2016-05-08T04:33:09.856Z,4
2016-05-08T04:34:09.905Z,4
2016-05-08T04:35:09.939Z,4
2016-05-08T04:36:09.972Z,4
2016-05-08T04:37:10.023Z,4
2016-05-08T04:38:10.057Z,4
2016-05-08T04:39:09.950Z,4
2016-05-08T04:40:10.140Z,4
2016-05-08T04:41:10.191Z,4
2016-05-08T04:42:10.224Z,4
2016-05-08T04:43:10.116Z,4
2016-05-08T04:44:10.291Z,4
2016-05-08T04:45:10.342Z,4
2016-05-08T04:46:10.390Z,4
2016-05-08T04:47:10.425Z,4
2016-05-08T04:48:10.459Z,4
2016-05-08T04:49:10.507Z,4
2016-05-08T04:50:10.542Z,4
2016-05-08T04:51:10.593Z,4
2016-05-08T04:52:10.626Z,4
2016-05-08T04:53:10.676Z,4
2016-05-08T04:54:10.553Z,4
2016-05-08T04:55:10.603Z,4
2016-05-08T04:56:10.792Z,4
2016-05-08T04:57:10.827Z,4
2016-05-08T04:58:11.142Z,4
2016-05-08T04:59:10.909Z,4
2016-05-08T05:00:10.959Z,4
2016-05-08T05:01:10.994Z,8
2016-05-08T05:02:11.028Z,4
2016-05-08T05:03:11.078Z,4
2016-05-08T05:04:11.111Z,4
2016-05-08T05:05:11.005Z,4
2016-05-08T05:06:11.194Z,4
2016-05-08T05:07:11.228Z,4
2016-05-08T05:08:11.278Z,4
2016-05-08T05:09:11.312Z,4
2016-05-08T05:10:11.205Z,4
2016-05-08T05:11:11.411Z,4
2016-05-08T05:12:11.274Z,4
2016-05-08T05:13:11.479Z,4
2016-05-08T05:14:11.513Z,8
2016-05-08T05:15:11.407Z,8
2016-05-08T05:16:11.596Z,8
2016-05-08T05:17:11.630Z,8
2016-05-08T05:18:11.680Z,8
2016-05-08T05:19:11.713Z,8
2016-05-08T05:20:11.763Z,8
2016-05-08T05:21:11.657Z,8
2016-05-08T05:22:11.847Z,8
2016-05-08T05:23:11.881Z,4
2016-05-08T05:24:11.915Z,4
2016-05-08T05:25:11.965Z,4
2016-05-08T05:26:11.999Z,8
2016-05-08T05:27:11.907Z,4
2016-05-08T05:28:12.551Z,8
2016-05-08T05:29:12.115Z,4
2016-05-08T05:30:12.165Z,8
2016-05-08T05:31:12.215Z,8
2016-05-08T05:32:12.249Z,8
2016-05-08T05:33:12.283Z,8
2016-05-08T05:34:12.333Z,8
2016-05-08T05:35:12.367Z,8
2016-05-08T05:36:12.401Z,8
2016-05-08T05:37:12.450Z,8
2016-05-08T05:38:12.499Z,12
2016-05-08T05:39:12.533Z,8
2016-05-08T05:40:12.567Z,8
2016-05-08T05:41:12.617Z,12
2016-05-08T05:42:12.651Z,8
2016-05-08T05:43:12.653Z,12
2016-05-08T05:44:12.734Z,12
2016-05-08T05:45:12.768Z,12
2016-05-08T05:46:12.834Z,12
2016-05-08T05:47:12.852Z,12
2016-05-08T05:48:12.902Z,12
2016-05-08T05:49:12.779Z,8
2016-05-08T05:50:12.969Z,8
2016-05-08T05:51:13.018Z,12
2016-05-08T05:52:13.053Z,12
2016-05-08T05:53:13.087Z,8
2016-05-08T05:54:13.137Z,8
2016-05-08T05:55:13.170Z,12
2016-05-08T05:56:13.220Z,12
2016-05-08T05:57:13.253Z,8
2016-05-08T05:58:13.303Z,8
2016-05-08T05:59:13.337Z,12
2016-05-08T06:00:13.231Z,12
2016-05-08T06:01:13.420Z,12
2016-05-08T06:02:13.454Z,8
2016-05-08T06:03:13.520Z,12
2016-05-08T06:04:13.554Z,12
2016-05-08T06:05:13.432Z,12
2016-05-08T06:06:13.622Z,12
2016-05-08T06:07:13.671Z,12
2016-05-08T06:08:13.549Z,12
2016-05-08T06:09:13.755Z,12
2016-05-08T06:10:13.788Z,12
2016-05-08T06:11:13.823Z,12
2016-05-08T06:12:13.872Z,8
2016-05-08T06:13:13.750Z,8
2016-05-08T06:14:13.941Z,8
2016-05-08T06:15:14.005Z,8
2016-05-08T06:16:14.039Z,8
2016-05-08T06:17:13.760Z,12
2016-05-08T06:18:13.951Z,12
2016-05-08T06:19:14.157Z,12
2016-05-08T06:20:14.191Z,12
2016-05-08T06:21:14.240Z,12
2016-05-08T06:22:14.274Z,12
2016-05-08T06:23:14.307Z,12
2016-05-08T06:24:14.342Z,12
2016-05-08T06:25:14.391Z,12
2016-05-08T06:26:14.440Z,12
2016-05-08T06:27:14.476Z,12
2016-05-08T06:28:14.524Z,12
2016-05-08T06:29:14.559Z,12
2016-05-08T06:30:14.608Z,12
2016-05-08T06:31:14.642Z,12
2016-05-08T06:32:14.520Z,12
2016-05-08T06:33:14.709Z,12
2016-05-08T06:34:14.775Z,8
2016-05-08T06:35:14.809Z,8
2016-05-08T06:36:14.843Z,12
2016-05-08T06:37:14.877Z,12
2016-05-08T06:38:14.942Z,12
2016-05-08T06:39:14.960Z,12
2016-05-08T06:40:15.010Z,12
2016-05-08T06:41:15.044Z,12
2016-05-08T06:42:15.078Z,12
2016-05-08T06:43:14.987Z,12
2016-05-08T06:44:15.161Z,12
2016-05-08T06:45:15.227Z,12
2016-05-08T06:46:15.261Z,12
2016-05-08T06:47:15.294Z,12
2016-05-08T06:48:15.328Z,12
2016-05-08T06:49:15.363Z,12
2016-05-08T06:50:15.412Z,12
2016-05-08T06:51:15.461Z,8
2016-05-08T06:52:15.496Z,8
2016-05-08T06:53:15.530Z,8
2016-05-08T06:54:15.579Z,12
2016-05-08T06:55:15.613Z,12
2016-05-08T06:56:15.506Z,12
2016-05-08T06:57:15.712Z,12
2016-05-08T06:58:15.589Z,12
2016-05-08T06:59:15.779Z,12
2016-05-08T07:00:15.814Z,12
2016-05-08T07:01:15.848Z,12
2016-05-08T07:02:15.898Z,12
2016-05-08T07:03:15.931Z,12
2016-05-08T07:04:15.981Z,16
2016-05-08T07:05:16.031Z,12
2016-05-08T07:06:16.048Z,12
2016-05-08T07:07:16.098Z,12
2016-05-08T07:08:15.975Z,12
2016-05-08T07:09:16.181Z,12
2016-05-08T07:10:16.075Z,12
2016-05-08T07:11:16.264Z,12
2016-05-08T07:12:16.299Z,12
2016-05-08T07:13:16.036Z,12
2016-05-08T07:14:16.383Z,12
2016-05-08T07:15:16.433Z,12
2016-05-08T07:16:16.466Z,12
2016-05-08T07:17:16.500Z,12
2016-05-08T07:18:16.549Z,12
2016-05-08T07:19:16.443Z,12
2016-05-08T07:20:16.633Z,12
2016-05-08T07:21:16.510Z,12
2016-05-08T07:22:16.717Z,16
2016-05-08T07:23:16.751Z,12
2016-05-08T07:24:16.785Z,12
2016-05-08T07:25:16.835Z,12
2016-05-08T07:26:16.868Z,12
2016-05-08T07:27:16.918Z,12
2016-05-08T07:28:16.811Z,12
2016-05-08T07:29:17.001Z,12
2016-05-08T07:30:17.034Z,12
2016-05-08T07:31:17.069Z,12
2016-05-08T07:32:17.118Z,12
2016-05-08T07:33:17.168Z,12
2016-05-08T07:34:17.046Z,12
2016-05-08T07:35:17.251Z,12
2016-05-08T07:36:17.286Z,16
2016-05-08T07:37:17.320Z,12
2016-05-08T07:38:17.370Z,12
2016-05-08T07:39:17.403Z,12
2016-05-08T07:40:17.452Z,12
2016-05-08T07:41:17.487Z,12
2016-05-08T07:42:17.520Z,16
2016-05-08T07:43:17.414Z,16
2016-05-08T07:44:17.619Z,16
2016-05-08T07:45:17.653Z,12
2016-05-08T07:46:17.688Z,12
2016-05-08T07:47:17.737Z,16
2016-05-08T07:48:17.755Z,12
2016-05-08T07:49:17.804Z,12
2016-05-08T07:50:17.838Z,12
2016-05-08T07:51:17.904Z,12
2016-05-08T07:52:17.938Z,12
2016-05-08T07:53:17.972Z,16
2016-05-08T07:54:18.021Z,12
2016-05-08T07:55:18.071Z,16
2016-05-08T07:56:17.933Z,16
2016-05-08T07:57:18.123Z,12
2016-05-08T07:58:18.032Z,16
2016-05-08T07:59:18.207Z,16
2016-05-08T08:00:18.256Z,16
2016-05-08T08:01:18.306Z,12
2016-05-08T08:02:18.340Z,12
2016-05-08T08:03:18.373Z,12
2016-05-08T08:04:18.423Z,16
2016-05-08T08:05:18.457Z,16
2016-05-08T08:06:18.507Z,12
2016-05-08T08:07:18.556Z,16
2016-05-08T08:08:18.590Z,12
2016-05-08T08:09:18.625Z,12
2016-05-08T08:10:18.689Z,12
2016-05-08T08:11:18.708Z,12
2016-05-08T08:12:18.742Z,12
2016-05-08T08:13:19.213Z,12
2016-05-08T08:14:18.825Z,16
2016-05-08T08:15:18.875Z,16
2016-05-08T08:16:18.909Z,16
2016-05-08T08:17:18.958Z,12
2016-05-08T08:18:18.992Z,16
2016-05-08T08:19:18.902Z,16
2016-05-08T08:20:18.919Z,16
2016-05-08T08:21:19.110Z,16
2016-05-08T08:22:19.003Z,16
2016-05-08T08:23:19.193Z,16
2016-05-08T08:24:19.243Z,16
2016-05-08T08:25:19.277Z,16
2016-05-08T08:26:19.310Z,16
2016-05-08T08:27:19.360Z,16
2016-05-08T08:28:19.394Z,16
2016-05-08T08:29:19.444Z,16
2016-05-08T08:30:19.477Z,16
2016-05-08T08:31:19.512Z,16
2016-05-08T08:32:19.562Z,12
2016-05-08T08:33:19.595Z,12
2016-05-08T08:34:19.645Z,12
2016-05-08T08:35:19.678Z,16
2016-05-08T08:36:19.728Z,16
2016-05-08T08:37:19.762Z,16
2016-05-08T08:38:19.812Z,16
2016-05-08T08:39:19.845Z,16
2016-05-08T08:40:19.879Z,20
2016-05-08T08:41:19.929Z,32
2016-05-08T08:42:19.964Z,32
2016-05-08T08:43:20.137Z,32
2016-05-08T08:44:20.046Z,32
2016-05-08T08:45:20.096Z,32
2016-05-08T08:46:20.130Z,32
2016-05-08T08:47:20.008Z,36
2016-05-08T08:48:20.229Z,36
2016-05-08T08:49:20.247Z,36
2016-05-08T08:50:20.297Z,32
2016-05-08T08:51:20.331Z,36
2016-05-08T08:52:20.380Z,32
2016-05-08T08:53:20.414Z,36
2016-05-08T08:54:20.463Z,32
2016-05-08T08:55:20.498Z,32
2016-05-08T08:56:20.547Z,36
2016-05-08T08:57:20.268Z,36
2016-05-08T08:58:20.632Z,32
2016-05-08T08:59:20.665Z,36
2016-05-08T09:00:20.715Z,32
2016-05-08T09:01:20.749Z,36
2016-05-08T09:02:20.782Z,36
2016-05-08T09:03:20.832Z,36
2016-05-08T09:04:20.865Z,32
2016-05-08T09:05:20.743Z,36
2016-05-08T09:06:20.949Z,36
2016-05-08T09:07:20.998Z,32
2016-05-08T09:08:21.049Z,36
2016-05-08T09:09:21.082Z,36
2016-05-08T09:10:21.116Z,36
2016-05-08T09:11:21.151Z,36
2016-05-08T09:12:21.184Z,36
2016-05-08T09:13:21.093Z,36
2016-05-08T09:14:21.267Z,36
2016-05-08T09:15:21.317Z,40
2016-05-08T09:16:21.351Z,36
2016-05-08T09:17:21.385Z,36
2016-05-08T09:18:21.294Z,36
2016-05-08T09:19:21.468Z,40
2016-05-08T09:20:21.519Z,36
2016-05-08T09:21:21.397Z,36
2016-05-08T09:22:21.586Z,36
2016-05-08T09:23:21.636Z,40
2016-05-08T09:24:21.669Z,36
2016-05-08T09:25:21.719Z,40
2016-05-08T09:26:21.753Z,40
2016-05-08T09:27:21.802Z,40
2016-05-08T09:28:21.852Z,40
2016-05-08T09:29:21.871Z,36
2016-05-08T09:30:21.921Z,40
2016-05-08T09:31:21.954Z,40
2016-05-08T09:32:21.848Z,40
2016-05-08T09:33:22.053Z,40
2016-05-08T09:34:22.072Z,40
2016-05-08T09:35:22.121Z,44
2016-05-08T09:36:22.154Z,40
2016-05-08T09:37:22.189Z,44
2016-05-08T09:38:22.239Z,44
2016-05-08T09:39:22.288Z,44
2016-05-08T09:40:22.322Z,40
2016-05-08T09:41:22.356Z,44
2016-05-08T09:42:22.406Z,44
2016-05-08T09:43:22.455Z,44
2016-05-08T09:44:22.473Z,44
2016-05-08T09:45:22.507Z,44
2016-05-08T09:46:22.572Z,48
2016-05-08T09:47:22.295Z,48
2016-05-08T09:48:22.484Z,48
2016-05-08T09:49:22.690Z,48
2016-05-08T09:50:22.739Z,48
2016-05-08T09:51:22.758Z,48
2016-05-08T09:52:22.808Z,52
2016-05-08T09:53:22.841Z,52
2016-05-08T09:54:22.891Z,52
2016-05-08T09:55:22.924Z,52
2016-05-08T09:56:22.975Z,52
2016-05-08T09:57:23.008Z,52
2016-05-08T09:58:23.058Z,56
2016-05-08T09:59:23.077Z,52
2016-05-08T10:00:23.126Z,52
2016-05-08T10:01:23.160Z,56
2016-05-08T10:02:23.224Z,52
2016-05-08T10:03:23.243Z,52
2016-05-08T10:04:23.293Z,56
2016-05-08T10:05:23.327Z,56
2016-05-08T10:06:23.360Z,56
2016-05-08T10:07:23.410Z,56
2016-05-08T10:08:23.445Z,56
2016-05-08T10:09:23.478Z,60
2016-05-08T10:10:23.543Z,60
2016-05-08T10:11:23.577Z,60
2016-05-08T10:12:23.455Z,60
2016-05-08T10:13:23.677Z,64
2016-05-08T10:14:23.694Z,60
2016-05-08T10:15:23.729Z,60
2016-05-08T10:16:23.762Z,68
2016-05-08T10:17:23.828Z,64
2016-05-08T10:18:23.847Z,64
2016-05-08T10:19:23.895Z,68
2016-05-08T10:20:23.930Z,68
2016-05-08T10:21:23.980Z,68
2016-05-08T10:22:24.013Z,36
2016-05-08T10:23:24.159Z,68
2016-05-08T10:24:24.092Z,76
2016-05-08T10:25:24.126Z,76
2016-05-08T10:26:24.175Z,72
2016-05-08T10:27:24.069Z,76
2016-05-08T10:28:24.258Z,72
2016-05-08T10:29:24.152Z,64
2016-05-08T10:30:24.327Z,76
2016-05-08T10:31:24.220Z,72
2016-05-08T10:32:24.410Z,76
2016-05-08T10:33:24.304Z,56
2016-05-08T10:34:31.557Z,36
2016-05-08T10:35:24.543Z,36
2016-05-08T10:36:24.577Z,36
2016-05-08T10:37:24.470Z,32
2016-05-08T10:38:24.660Z,32
2016-05-08T10:39:24.695Z,32
2016-05-08T10:40:24.587Z,36
2016-05-08T10:41:24.778Z,36
2016-05-08T10:42:24.828Z,32
2016-05-08T10:43:25.190Z,12
2016-05-08T10:44:24.895Z,40
2016-05-08T10:45:24.945Z,36
2016-05-08T10:46:24.823Z,40
2016-05-08T10:47:25.013Z,36
2016-05-08T10:48:24.906Z,36
2016-05-08T10:49:25.112Z,40
2016-05-08T10:50:25.162Z,36
2016-05-08T10:51:25.181Z,40
2016-05-08T10:52:25.214Z,40
2016-05-08T10:53:25.264Z,40
2016-05-08T10:54:25.313Z,40
2016-05-08T10:55:25.347Z,40
2016-05-08T10:56:25.381Z,40
2016-05-08T10:57:25.431Z,44
2016-05-08T10:58:26.949Z,40
2016-05-08T10:59:25.514Z,44
2016-05-08T11:00:25.548Z,44
2016-05-08T11:01:25.597Z,44
2016-05-08T11:02:25.475Z,48
2016-05-08T11:03:25.680Z,48
2016-05-08T11:04:25.715Z,48
2016-05-08T11:05:25.748Z,44
2016-05-08T11:06:25.782Z,44
2016-05-08T11:07:25.833Z,48
2016-05-08T11:08:25.882Z,48
2016-05-08T11:09:25.915Z,48
2016-05-08T11:10:25.949Z,48
2016-05-08T11:11:25.999Z,52
2016-05-08T11:12:26.034Z,52
2016-05-08T11:13:25.926Z,52
2016-05-08T11:14:26.117Z,52
2016-05-08T11:15:26.182Z,52
2016-05-08T11:16:26.201Z,52
2016-05-08T11:17:26.235Z,52
2016-05-08T11:18:26.284Z,52
2016-05-08T11:19:26.162Z,56
2016-05-08T11:20:26.367Z,52
2016-05-08T11:21:26.417Z,56
2016-05-08T11:22:26.294Z,56
2016-05-08T11:23:26.328Z,56
2016-05-08T11:24:26.534Z,56
2016-05-08T11:25:26.584Z,56
2016-05-08T11:26:26.446Z,56
2016-05-08T11:27:26.495Z,56
2016-05-08T11:28:26.655Z,60
2016-05-08T11:29:26.719Z,60
2016-05-08T11:30:26.769Z,60
2016-05-08T11:31:26.802Z,60
2016-05-08T11:32:26.697Z,64
2016-05-08T11:33:26.887Z,64
2016-05-08T11:34:26.936Z,68
2016-05-08T11:35:26.971Z,68
2016-05-08T11:36:26.863Z,64
2016-05-08T11:37:27.054Z,68
2016-05-08T11:38:27.088Z,68
2016-05-08T11:39:27.137Z,64
2016-05-08T11:40:27.171Z,68
2016-05-08T11:41:27.205Z,36
2016-05-08T11:42:27.270Z,72
2016-05-08T11:43:27.288Z,72
2016-05-08T11:44:27.323Z,68
2016-05-08T11:45:27.372Z,68
2016-05-08T11:46:27.421Z,72
2016-05-08T11:47:27.455Z,72
2016-05-08T11:48:27.366Z,72
2016-05-08T11:49:27.473Z,72
2016-05-08T11:50:27.689Z,72
2016-05-08T11:51:27.781Z,76
2016-05-08T11:52:27.716Z,80
2016-05-08T11:53:27.771Z,80
2016-05-08T11:54:27.992Z,80
2016-05-08T11:55:28.056Z,84
2016-05-08T11:56:28.089Z,84
2016-05-08T11:57:28.138Z,84
2016-05-08T11:58:28.274Z,88
2016-05-08T11:59:28.235Z,88
2016-05-08T12:00:28.274Z,92
2016-05-08T12:01:28.329Z,92
2016-05-08T12:02:28.243Z,96
2016-05-08T12:03:28.265Z,96
2016-05-08T12:04:28.456Z,100
2016-05-08T12:05:28.493Z,104
2016-05-08T12:06:28.387Z,104
2016-05-08T12:07:28.580Z,108
2016-05-08T12:08:28.630Z,108
2016-05-08T12:09:28.524Z,108
2016-05-08T12:10:28.559Z,108
2016-05-08T12:11:28.750Z,112
2016-05-08T12:12:28.801Z,116
2016-05-08T12:13:29.162Z,116
2016-05-08T12:14:28.883Z,120
2016-05-08T12:15:28.918Z,120
2016-05-08T12:16:28.951Z,124
2016-05-08T12:17:29.001Z,128
2016-05-08T12:18:28.878Z,124
2016-05-08T12:19:29.085Z,132
2016-05-08T12:20:29.120Z,132
2016-05-08T12:21:29.153Z,132
2016-05-08T12:22:29.203Z,136
2016-05-08T12:23:29.252Z,140
2016-05-08T12:24:29.286Z,144
2016-05-08T12:25:29.319Z,144
2016-05-08T12:26:29.353Z,148
2016-05-08T12:27:29.403Z,148
2016-05-08T12:28:29.609Z,152
2016-05-08T12:29:29.502Z,152
2016-05-08T12:30:29.536Z,156
2016-05-08T12:31:29.414Z,160
2016-05-08T12:32:29.604Z,164
2016-05-08T12:33:29.654Z,172
2016-05-08T12:34:29.687Z,172
2016-05-08T12:35:29.738Z,172
2016-05-08T12:36:29.772Z,172
2016-05-08T12:37:29.821Z,176
2016-05-08T12:38:29.871Z,176
2016-05-08T12:39:29.732Z,180
2016-05-08T12:40:29.954Z,188
2016-05-08T12:41:29.973Z,188
2016-05-08T12:42:29.865Z,176
2016-05-08T12:43:30.056Z,196
2016-05-08T12:44:30.090Z,196
2016-05-08T12:45:30.139Z,200
2016-05-08T12:46:30.032Z,200
2016-05-08T12:47:30.223Z,152
2016-05-08T12:48:30.287Z,208
2016-05-08T12:49:29.994Z,216
2016-05-08T12:50:30.339Z,216
2016-05-08T12:51:30.405Z,220
2016-05-08T12:52:30.440Z,24
2016-05-08T12:53:30.458Z,232
2016-05-08T12:54:30.508Z,64
2016-05-08T12:55:30.541Z,36
2016-05-08T12:56:30.450Z,244
2016-05-08T12:57:30.640Z,244
2016-05-08T12:58:30.689Z,252
2016-05-08T12:59:30.708Z,244
2016-05-08T13:00:30.602Z,252
2016-05-08T13:01:30.792Z,256
2016-05-08T13:02:30.685Z,48
2016-05-08T13:03:30.875Z,260
2016-05-08T13:04:30.752Z,260
2016-05-08T13:05:30.958Z,256
2016-05-08T13:06:31.008Z,264
2016-05-08T13:07:30.885Z,268
2016-05-08T13:08:31.091Z,252
2016-05-08T13:09:30.954Z,280
2016-05-08T13:10:31.004Z,260
2016-05-08T13:11:31.193Z,80
2016-05-08T13:12:31.242Z,284
2016-05-08T13:13:33.027Z,256
2016-05-08T13:14:31.326Z,212
2016-05-08T13:15:31.204Z,304
2016-05-08T13:16:31.394Z,316
2016-05-08T13:17:31.429Z,20
2016-05-08T13:18:31.478Z,24
2016-05-08T13:19:31.528Z,308
2016-05-08T13:20:31.405Z,320
2016-05-08T13:21:31.611Z,36
2016-05-08T13:22:31.645Z,308
2016-05-08T13:23:31.694Z,40
2016-05-08T13:24:31.728Z,28
2016-05-08T13:25:31.762Z,24
2016-05-08T13:26:31.811Z,20
2016-05-08T13:27:31.861Z,20
2016-05-08T13:28:32.427Z,20
2016-05-08T13:29:31.945Z,320
2016-05-08T13:30:31.822Z,168
2016-05-08T13:31:32.013Z,332
2016-05-08T13:32:32.063Z,328
2016-05-08T13:33:32.096Z,24
2016-05-08T13:34:32.130Z,340
2016-05-08T13:35:32.164Z,28
2016-05-08T13:36:32.213Z,240
2016-05-08T13:37:32.373Z,328
2016-05-08T13:38:32.141Z,332
2016-05-08T13:39:32.347Z,320
2016-05-08T13:40:32.396Z,180
2016-05-08T13:41:32.430Z,300
2016-05-08T13:42:32.465Z,296
2016-05-08T13:43:33.107Z,276
2016-05-08T13:44:32.548Z,268
2016-05-08T13:45:32.426Z,248
2016-05-08T13:46:32.631Z,228
2016-05-08T13:47:32.665Z,212
2016-05-08T13:48:32.714Z,204
2016-05-08T13:49:32.748Z,184
2016-05-08T13:50:32.784Z,168
2016-05-08T13:51:32.675Z,176
2016-05-08T13:52:32.867Z,148
2016-05-08T13:53:32.900Z,140
2016-05-08T13:54:32.965Z,128
2016-05-08T13:55:33.000Z,132
2016-05-08T13:56:33.033Z,140
2016-05-08T13:57:33.067Z,112
2016-05-08T13:58:32.961Z,100
2016-05-08T13:59:33.166Z,108
2016-05-08T14:00:33.185Z,100
2016-05-08T14:01:33.234Z,92
2016-05-08T14:02:33.284Z,64
2016-05-08T14:03:33.318Z,24
2016-05-08T14:04:33.367Z,80
2016-05-08T14:05:33.401Z,72
2016-05-08T14:06:33.451Z,64
2016-05-08T14:07:33.484Z,80
2016-05-08T14:08:33.534Z,64
2016-05-08T14:09:33.412Z,52
2016-05-08T14:10:33.602Z,44
2016-05-08T14:11:33.340Z,44
2016-05-08T14:12:33.685Z,48
2016-05-08T14:13:33.735Z,32
2016-05-08T14:14:33.768Z,52
2016-05-08T14:15:33.818Z,48
2016-05-08T14:16:33.696Z,24
2016-05-08T14:17:33.731Z,48
2016-05-08T14:18:33.779Z,52
2016-05-08T14:19:33.814Z,56
2016-05-08T14:20:33.864Z,28
2016-05-08T14:21:34.084Z,52
2016-05-08T14:22:34.104Z,44
2016-05-08T14:23:34.137Z,24
2016-05-08T14:24:34.030Z,24
2016-05-08T14:25:34.064Z,24